sensor_id;sensor_type;location;lat;lon;timestamp;P1;durP1;ratioP1;P2;durP2;ratioP2
15952;SDS011;8075;47.766;8.846;2022-08-19T00:00:33;8.60;;;8.00;;
15952;SDS011;8075;47.766;8.846;2022-08-19T00:02:59;8.38;;;7.85;;
15952;SDS011;8075;47.766;8.846;2022-08-19T00:05:25;9.80;;;9.10;;
15952;SDS011;8075;47.766;8.846;2022-08-19T00:07:51;10.35;;;9.55;;
15952;SDS011;8075;47.766;8.846;2022-08-19T00:10:17;10.02;;;9.32;;
15952;SDS011;8075;47.766;8.846;2022-08-19T00:12:44;9.05;;;8.45;;
15952;SDS011;8075;47.766;8.846;2022-08-19T00:15:11;9.57;;;8.73;;
15952;SDS011;8075;47.766;8.846;2022-08-19T00:17:41;10.13;;;9.43;;
15952;SDS011;8075;47.766;8.846;2022-08-19T00:20:08;9.40;;;8.80;;
15952;SDS011;8075;47.766;8.846;2022-08-19T00:22:35;8.60;;;8.00;;
15952;SDS011;8075;47.766;8.846;2022-08-19T00:25:01;8.37;;;7.77;;
15952;SDS011;8075;47.766;8.846;2022-08-19T00:27:27;8.75;;;8.18;;
15952;SDS011;8075;47.766;8.846;2022-08-19T00:29:53;8.43;;;7.93;;
15952;SDS011;8075;47.766;8.846;2022-08-19T00:32:20;8.40;;;7.80;;
15952;SDS011;8075;47.766;8.846;2022-08-19T00:34:46;9.10;;;8.50;;
15952;SDS011;8075;47.766;8.846;2022-08-19T00:37:12;9.73;;;8.93;;
15952;SDS011;8075;47.766;8.846;2022-08-19T00:39:38;10.00;;;9.20;;
15952;SDS011;8075;47.766;8.846;2022-08-19T00:42:04;9.03;;;8.43;;
15952;SDS011;8075;47.766;8.846;2022-08-19T00:44:31;9.40;;;8.80;;
15952;SDS011;8075;47.766;8.846;2022-08-19T00:46:57;10.32;;;9.63;;
15952;SDS011;8075;47.766;8.846;2022-08-19T00:52:12;9.20;;;8.60;;
15952;SDS011;8075;47.766;8.846;2022-08-19T00:54:39;10.00;;;9.30;;
15952;SDS011;8075;47.766;8.846;2022-08-19T00:57:08;9.52;;;8.93;;
15952;SDS011;8075;47.766;8.846;2022-08-19T00:59:35;10.65;;;9.95;;
15952;SDS011;8075;47.766;8.846;2022-08-19T01:02:02;9.27;;;8.68;;
15952;SDS011;8075;47.766;8.846;2022-08-19T01:04:29;9.80;;;9.10;;
15952;SDS011;8075;47.766;8.846;2022-08-19T01:06:55;10.30;;;9.60;;
15952;SDS011;8075;47.766;8.846;2022-08-19T01:09:21;9.60;;;9.00;;
15952;SDS011;8075;47.766;8.846;2022-08-19T01:11:47;10.32;;;9.57;;
15952;SDS011;8075;47.766;8.846;2022-08-19T01:14:13;9.75;;;9.15;;
15952;SDS011;8075;47.766;8.846;2022-08-19T01:16:41;9.40;;;8.80;;
15952;SDS011;8075;47.766;8.846;2022-08-19T01:19:15;10.13;;;9.43;;
15952;SDS011;8075;47.766;8.846;2022-08-19T01:21:54;10.35;;;9.52;;
15952;SDS011;8075;47.766;8.846;2022-08-19T01:24:21;9.80;;;9.20;;
15952;SDS011;8075;47.766;8.846;2022-08-19T01:26:47;10.60;;;9.90;;
15952;SDS011;8075;47.766;8.846;2022-08-19T01:29:13;11.25;;;10.55;;
15952;SDS011;8075;47.766;8.846;2022-08-19T01:31:39;12.82;;;11.85;;
15952;SDS011;8075;47.766;8.846;2022-08-19T01:34:05;12.30;;;11.50;;
15952;SDS011;8075;47.766;8.846;2022-08-19T01:36:33;13.27;;;12.38;;
15952;SDS011;8075;47.766;8.846;2022-08-19T01:39:00;14.13;;;13.02;;
15952;SDS011;8075;47.766;8.846;2022-08-19T01:41:26;13.82;;;12.82;;
15952;SDS011;8075;47.766;8.846;2022-08-19T01:43:54;12.57;;;11.75;;
15952;SDS011;8075;47.766;8.846;2022-08-19T01:46:21;13.15;;;12.15;;
15952;SDS011;8075;47.766;8.846;2022-08-19T01:48:47;12.48;;;11.57;;
15952;SDS011;8075;47.766;8.846;2022-08-19T01:51:13;11.82;;;11.02;;
15952;SDS011;8075;47.766;8.846;2022-08-19T01:53:39;14.30;;;13.20;;
15952;SDS011;8075;47.766;8.846;2022-08-19T01:56:06;14.38;;;13.18;;
15952;SDS011;8075;47.766;8.846;2022-08-19T01:58:34;15.07;;;13.93;;
15952;SDS011;8075;47.766;8.846;2022-08-19T02:01:02;14.93;;;13.73;;
15952;SDS011;8075;47.766;8.846;2022-08-19T02:03:28;14.57;;;13.48;;
15952;SDS011;8075;47.766;8.846;2022-08-19T02:05:58;16.55;;;15.25;;
15952;SDS011;8075;47.766;8.846;2022-08-19T02:08:26;14.73;;;13.57;;
15952;SDS011;8075;47.766;8.846;2022-08-19T02:10:52;15.10;;;13.90;;
15952;SDS011;8075;47.766;8.846;2022-08-19T02:13:19;15.10;;;13.90;;
15952;SDS011;8075;47.766;8.846;2022-08-19T02:15:45;14.95;;;13.85;;
15952;SDS011;8075;47.766;8.846;2022-08-19T02:18:11;15.30;;;14.10;;
15952;SDS011;8075;47.766;8.846;2022-08-19T02:20:37;15.23;;;14.02;;
15952;SDS011;8075;47.766;8.846;2022-08-19T02:23:04;16.38;;;15.15;;
15952;SDS011;8075;47.766;8.846;2022-08-19T02:25:30;15.52;;;14.30;;
15952;SDS011;8075;47.766;8.846;2022-08-19T02:27:56;15.38;;;14.15;;
15952;SDS011;8075;47.766;8.846;2022-08-19T02:30:22;17.38;;;15.82;;
15952;SDS011;8075;47.766;8.846;2022-08-19T02:32:49;18.02;;;16.50;;
15952;SDS011;8075;47.766;8.846;2022-08-19T02:35:16;17.45;;;16.05;;
15952;SDS011;8075;47.766;8.846;2022-08-19T02:37:42;16.08;;;14.77;;
15952;SDS011;8075;47.766;8.846;2022-08-19T02:40:27;16.85;;;15.55;;
15952;SDS011;8075;47.766;8.846;2022-08-19T02:42:53;16.50;;;15.20;;
15952;SDS011;8075;47.766;8.846;2022-08-19T02:45:20;16.23;;;15.02;;
15952;SDS011;8075;47.766;8.846;2022-08-19T02:47:46;15.98;;;14.80;;
15952;SDS011;8075;47.766;8.846;2022-08-19T02:50:12;16.00;;;14.80;;
15952;SDS011;8075;47.766;8.846;2022-08-19T02:52:39;16.65;;;15.35;;
15952;SDS011;8075;47.766;8.846;2022-08-19T02:55:05;16.77;;;15.50;;
15952;SDS011;8075;47.766;8.846;2022-08-19T02:57:31;17.98;;;16.48;;
15952;SDS011;8075;47.766;8.846;2022-08-19T02:59:57;17.90;;;16.42;;
15952;SDS011;8075;47.766;8.846;2022-08-19T03:02:24;19.20;;;17.63;;
15952;SDS011;8075;47.766;8.846;2022-08-19T03:04:50;17.60;;;16.20;;
15952;SDS011;8075;47.766;8.846;2022-08-19T03:07:16;16.17;;;15.02;;
15952;SDS011;8075;47.766;8.846;2022-08-19T03:09:43;17.58;;;16.25;;
15952;SDS011;8075;47.766;8.846;2022-08-19T03:12:09;17.05;;;15.80;;
15952;SDS011;8075;47.766;8.846;2022-08-19T03:14:36;18.20;;;16.73;;
15952;SDS011;8075;47.766;8.846;2022-08-19T03:17:02;17.67;;;16.30;;
15952;SDS011;8075;47.766;8.846;2022-08-19T03:19:29;17.83;;;16.48;;
15952;SDS011;8075;47.766;8.846;2022-08-19T03:21:56;17.92;;;16.52;;
15952;SDS011;8075;47.766;8.846;2022-08-19T03:24:22;16.55;;;15.25;;
15952;SDS011;8075;47.766;8.846;2022-08-19T03:26:50;17.08;;;15.68;;
15952;SDS011;8075;47.766;8.846;2022-08-19T03:29:17;16.58;;;15.27;;
15952;SDS011;8075;47.766;8.846;2022-08-19T03:31:43;16.53;;;15.23;;
15952;SDS011;8075;47.766;8.846;2022-08-19T03:34:10;16.63;;;15.32;;
15952;SDS011;8075;47.766;8.846;2022-08-19T03:36:36;17.27;;;15.95;;
15952;SDS011;8075;47.766;8.846;2022-08-19T03:39:03;16.70;;;15.50;;
15952;SDS011;8075;47.766;8.846;2022-08-19T03:41:35;17.20;;;15.90;;
15952;SDS011;8075;47.766;8.846;2022-08-19T03:44:02;15.55;;;14.35;;
15952;SDS011;8075;47.766;8.846;2022-08-19T03:46:31;14.98;;;13.88;;
15952;SDS011;8075;47.766;8.846;2022-08-19T03:48:58;15.65;;;14.45;;
15952;SDS011;8075;47.766;8.846;2022-08-19T03:51:29;16.17;;;14.87;;
15952;SDS011;8075;47.766;8.846;2022-08-19T03:53:58;16.13;;;14.93;;
15952;SDS011;8075;47.766;8.846;2022-08-19T03:56:25;15.95;;;14.70;;
15952;SDS011;8075;47.766;8.846;2022-08-19T03:58:53;16.33;;;15.10;;
15952;SDS011;8075;47.766;8.846;2022-08-19T04:01:19;16.70;;;15.30;;
15952;SDS011;8075;47.766;8.846;2022-08-19T04:03:46;16.02;;;14.85;;
15952;SDS011;8075;47.766;8.846;2022-08-19T04:06:12;15.55;;;14.20;;
15952;SDS011;8075;47.766;8.846;2022-08-19T04:08:39;15.43;;;14.18;;
15952;SDS011;8075;47.766;8.846;2022-08-19T04:11:06;15.70;;;14.38;;
15952;SDS011;8075;47.766;8.846;2022-08-19T04:13:33;15.18;;;13.88;;
15952;SDS011;8075;47.766;8.846;2022-08-19T04:15:59;17.37;;;15.90;;
15952;SDS011;8075;47.766;8.846;2022-08-19T04:18:25;17.10;;;15.60;;
15952;SDS011;8075;47.766;8.846;2022-08-19T04:20:54;17.10;;;15.80;;
15952;SDS011;8075;47.766;8.846;2022-08-19T04:23:22;17.05;;;15.75;;
15952;SDS011;8075;47.766;8.846;2022-08-19T04:25:48;16.60;;;15.32;;
15952;SDS011;8075;47.766;8.846;2022-08-19T04:28:14;17.15;;;15.75;;
15952;SDS011;8075;47.766;8.846;2022-08-19T04:30:41;17.77;;;16.40;;
15952;SDS011;8075;47.766;8.846;2022-08-19T04:33:09;16.27;;;14.98;;
15952;SDS011;8075;47.766;8.846;2022-08-19T04:35:39;18.20;;;16.63;;
15952;SDS011;8075;47.766;8.846;2022-08-19T04:38:05;16.63;;;15.23;;
15952;SDS011;8075;47.766;8.846;2022-08-19T04:40:31;17.03;;;15.63;;
15952;SDS011;8075;47.766;8.846;2022-08-19T04:43:16;16.35;;;15.10;;
15952;SDS011;8075;47.766;8.846;2022-08-19T04:45:43;17.40;;;16.00;;
15952;SDS011;8075;47.766;8.846;2022-08-19T04:48:09;19.80;;;18.15;;
15952;SDS011;8075;47.766;8.846;2022-08-19T04:50:35;18.77;;;17.30;;
15952;SDS011;8075;47.766;8.846;2022-08-19T04:53:01;18.67;;;17.05;;
15952;SDS011;8075;47.766;8.846;2022-08-19T04:55:28;19.70;;;17.92;;
15952;SDS011;8075;47.766;8.846;2022-08-19T04:57:54;19.63;;;17.92;;
15952;SDS011;8075;47.766;8.846;2022-08-19T05:00:20;20.93;;;19.13;;
15952;SDS011;8075;47.766;8.846;2022-08-19T05:02:46;19.17;;;17.63;;
15952;SDS011;8075;47.766;8.846;2022-08-19T05:05:14;18.58;;;17.10;;
15952;SDS011;8075;47.766;8.846;2022-08-19T05:07:40;19.10;;;17.60;;
15952;SDS011;8075;47.766;8.846;2022-08-19T05:10:06;20.23;;;18.45;;
15952;SDS011;8075;47.766;8.846;2022-08-19T05:12:33;20.50;;;18.65;;
15952;SDS011;8075;47.766;8.846;2022-08-19T05:14:59;21.08;;;19.23;;
15952;SDS011;8075;47.766;8.846;2022-08-19T05:17:26;20.27;;;18.60;;
15952;SDS011;8075;47.766;8.846;2022-08-19T05:19:52;18.73;;;17.20;;
15952;SDS011;8075;47.766;8.846;2022-08-19T05:22:36;21.48;;;19.48;;
15952;SDS011;8075;47.766;8.846;2022-08-19T05:25:04;19.88;;;18.05;;
15952;SDS011;8075;47.766;8.846;2022-08-19T05:27:30;20.63;;;18.92;;
15952;SDS011;8075;47.766;8.846;2022-08-19T05:29:57;21.77;;;19.83;;
15952;SDS011;8075;47.766;8.846;2022-08-19T05:32:23;21.15;;;19.10;;
15952;SDS011;8075;47.766;8.846;2022-08-19T05:34:49;20.10;;;18.30;;
15952;SDS011;8075;47.766;8.846;2022-08-19T05:37:15;20.42;;;18.63;;
15952;SDS011;8075;47.766;8.846;2022-08-19T05:39:42;18.77;;;17.25;;
15952;SDS011;8075;47.766;8.846;2022-08-19T05:42:09;18.85;;;17.35;;
15952;SDS011;8075;47.766;8.846;2022-08-19T05:44:37;20.30;;;18.50;;
15952;SDS011;8075;47.766;8.846;2022-08-19T05:47:04;20.33;;;18.60;;
15952;SDS011;8075;47.766;8.846;2022-08-19T05:49:33;19.85;;;18.25;;
15952;SDS011;8075;47.766;8.846;2022-08-19T05:52:01;19.38;;;17.80;;
15952;SDS011;8075;47.766;8.846;2022-08-19T05:54:28;20.02;;;18.33;;
15952;SDS011;8075;47.766;8.846;2022-08-19T05:56:54;18.23;;;16.75;;
15952;SDS011;8075;47.766;8.846;2022-08-19T05:59:21;18.80;;;17.37;;
15952;SDS011;8075;47.766;8.846;2022-08-19T06:01:49;22.30;;;20.40;;
15952;SDS011;8075;47.766;8.846;2022-08-19T06:04:16;23.15;;;20.95;;
15952;SDS011;8075;47.766;8.846;2022-08-19T06:06:43;23.27;;;21.17;;
15952;SDS011;8075;47.766;8.846;2022-08-19T06:09:09;23.05;;;21.05;;
15952;SDS011;8075;47.766;8.846;2022-08-19T06:11:37;24.33;;;22.13;;
15952;SDS011;8075;47.766;8.846;2022-08-19T06:14:05;25.67;;;23.45;;
15952;SDS011;8075;47.766;8.846;2022-08-19T06:16:33;26.15;;;23.65;;
15952;SDS011;8075;47.766;8.846;2022-08-19T06:19:00;25.27;;;22.98;;
15952;SDS011;8075;47.766;8.846;2022-08-19T06:21:27;25.23;;;23.00;;
15952;SDS011;8075;47.766;8.846;2022-08-19T06:23:54;24.05;;;21.92;;
15952;SDS011;8075;47.766;8.846;2022-08-19T06:26:20;25.58;;;23.17;;
15952;SDS011;8075;47.766;8.846;2022-08-19T06:28:47;24.90;;;22.80;;
15952;SDS011;8075;47.766;8.846;2022-08-19T06:31:17;23.48;;;21.38;;
15952;SDS011;8075;47.766;8.846;2022-08-19T06:33:45;22.40;;;20.60;;
15952;SDS011;8075;47.766;8.846;2022-08-19T06:36:21;22.77;;;20.88;;
15952;SDS011;8075;47.766;8.846;2022-08-19T06:38:52;21.02;;;19.30;;
15952;SDS011;8075;47.766;8.846;2022-08-19T06:41:18;20.88;;;19.15;;
15952;SDS011;8075;47.766;8.846;2022-08-19T06:43:44;21.73;;;20.02;;
15952;SDS011;8075;47.766;8.846;2022-08-19T06:46:11;23.30;;;21.35;;
15952;SDS011;8075;47.766;8.846;2022-08-19T06:48:37;21.70;;;19.95;;
15952;SDS011;8075;47.766;8.846;2022-08-19T06:51:03;22.35;;;20.45;;
15952;SDS011;8075;47.766;8.846;2022-08-19T06:53:31;25.58;;;23.30;;
15952;SDS011;8075;47.766;8.846;2022-08-19T06:55:57;24.45;;;22.35;;
15952;SDS011;8075;47.766;8.846;2022-08-19T06:58:27;21.38;;;19.48;;
15952;SDS011;8075;47.766;8.846;2022-08-19T07:00:54;22.20;;;20.30;;
15952;SDS011;8075;47.766;8.846;2022-08-19T07:03:20;22.67;;;20.48;;
15952;SDS011;8075;47.766;8.846;2022-08-19T07:05:46;23.75;;;21.65;;
15952;SDS011;8075;47.766;8.846;2022-08-19T07:08:12;24.20;;;22.10;;
15952;SDS011;8075;47.766;8.846;2022-08-19T07:10:42;25.55;;;23.23;;
15952;SDS011;8075;47.766;8.846;2022-08-19T07:13:08;27.23;;;24.70;;
15952;SDS011;8075;47.766;8.846;2022-08-19T07:15:35;27.00;;;24.42;;
15952;SDS011;8075;47.766;8.846;2022-08-19T07:18:02;25.73;;;23.38;;
15952;SDS011;8075;47.766;8.846;2022-08-19T07:20:28;25.70;;;23.52;;
15952;SDS011;8075;47.766;8.846;2022-08-19T07:22:54;27.33;;;24.75;;
15952;SDS011;8075;47.766;8.846;2022-08-19T07:25:20;27.20;;;24.63;;
15952;SDS011;8075;47.766;8.846;2022-08-19T07:27:48;25.88;;;23.42;;
15952;SDS011;8075;47.766;8.846;2022-08-19T07:30:15;23.90;;;21.80;;
15952;SDS011;8075;47.766;8.846;2022-08-19T07:32:41;25.48;;;23.27;;
15952;SDS011;8075;47.766;8.846;2022-08-19T07:35:08;24.80;;;22.50;;
15952;SDS011;8075;47.766;8.846;2022-08-19T07:37:34;25.60;;;23.35;;
15952;SDS011;8075;47.766;8.846;2022-08-19T07:40:02;26.05;;;23.67;;
15952;SDS011;8075;47.766;8.846;2022-08-19T07:42:28;24.98;;;22.67;;
15952;SDS011;8075;47.766;8.846;2022-08-19T07:44:55;25.70;;;23.30;;
15952;SDS011;8075;47.766;8.846;2022-08-19T07:47:21;26.58;;;24.17;;
15952;SDS011;8075;47.766;8.846;2022-08-19T07:49:47;26.63;;;24.20;;
15952;SDS011;8075;47.766;8.846;2022-08-19T07:52:13;27.43;;;24.83;;
15952;SDS011;8075;47.766;8.846;2022-08-19T07:54:41;25.10;;;22.80;;
15952;SDS011;8075;47.766;8.846;2022-08-19T07:57:08;27.58;;;24.98;;
15952;SDS011;8075;47.766;8.846;2022-08-19T07:59:34;26.43;;;24.03;;
15952;SDS011;8075;47.766;8.846;2022-08-19T08:02:01;26.83;;;24.13;;
15952;SDS011;8075;47.766;8.846;2022-08-19T08:04:28;26.52;;;23.95;;
15952;SDS011;8075;47.766;8.846;2022-08-19T08:07:13;28.60;;;25.90;;
15952;SDS011;8075;47.766;8.846;2022-08-19T08:09:58;26.58;;;24.08;;
15952;SDS011;8075;47.766;8.846;2022-08-19T08:15:13;25.17;;;22.70;;
15952;SDS011;8075;47.766;8.846;2022-08-19T08:17:44;25.77;;;23.30;;
15952;SDS011;8075;47.766;8.846;2022-08-19T08:23:13;25.45;;;22.95;;
15952;SDS011;8075;47.766;8.846;2022-08-19T08:25:50;27.88;;;25.17;;
15952;SDS011;8075;47.766;8.846;2022-08-19T08:28:17;27.52;;;24.73;;
15952;SDS011;8075;47.766;8.846;2022-08-19T08:30:43;29.07;;;25.93;;
15952;SDS011;8075;47.766;8.846;2022-08-19T08:33:12;30.52;;;27.35;;
15952;SDS011;8075;47.766;8.846;2022-08-19T08:35:39;28.10;;;25.38;;
15952;SDS011;8075;47.766;8.846;2022-08-19T08:38:06;27.52;;;24.73;;
15952;SDS011;8075;47.766;8.846;2022-08-19T08:40:38;27.47;;;24.83;;
15952;SDS011;8075;47.766;8.846;2022-08-19T08:43:18;27.55;;;24.85;;
15952;SDS011;8075;47.766;8.846;2022-08-19T08:45:55;29.23;;;26.13;;
15952;SDS011;8075;47.766;8.846;2022-08-19T08:48:30;30.27;;;27.17;;
15952;SDS011;8075;47.766;8.846;2022-08-19T08:50:58;30.45;;;27.27;;
15952;SDS011;8075;47.766;8.846;2022-08-19T08:53:25;28.77;;;25.85;;
15952;SDS011;8075;47.766;8.846;2022-08-19T08:55:51;28.17;;;25.35;;
15952;SDS011;8075;47.766;8.846;2022-08-19T08:58:25;28.13;;;25.30;;
15952;SDS011;8075;47.766;8.846;2022-08-19T09:00:53;27.27;;;24.57;;
15952;SDS011;8075;47.766;8.846;2022-08-19T09:03:20;25.75;;;23.40;;
15952;SDS011;8075;47.766;8.846;2022-08-19T09:05:51;27.63;;;24.83;;
15952;SDS011;8075;47.766;8.846;2022-08-19T09:08:27;28.27;;;25.38;;
15952;SDS011;8075;47.766;8.846;2022-08-19T09:10:55;29.00;;;26.00;;
15952;SDS011;8075;47.766;8.846;2022-08-19T09:15:54;28.58;;;25.67;;
15952;SDS011;8075;47.766;8.846;2022-08-19T09:18:23;27.83;;;25.13;;
15952;SDS011;8075;47.766;8.846;2022-08-19T09:20:49;26.67;;;23.98;;
15952;SDS011;8075;47.766;8.846;2022-08-19T09:23:15;26.85;;;24.10;;
15952;SDS011;8075;47.766;8.846;2022-08-19T09:25:41;28.13;;;25.30;;
15952;SDS011;8075;47.766;8.846;2022-08-19T09:28:07;29.42;;;26.45;;
15952;SDS011;8075;47.766;8.846;2022-08-19T09:30:40;28.48;;;25.63;;
15952;SDS011;8075;47.766;8.846;2022-08-19T09:33:06;29.60;;;26.58;;
15952;SDS011;8075;47.766;8.846;2022-08-19T09:35:33;29.73;;;26.65;;
15952;SDS011;8075;47.766;8.846;2022-08-19T09:38:00;29.30;;;26.45;;
15952;SDS011;8075;47.766;8.846;2022-08-19T09:40:27;30.30;;;27.10;;
15952;SDS011;8075;47.766;8.846;2022-08-19T09:42:53;29.42;;;26.42;;
15952;SDS011;8075;47.766;8.846;2022-08-19T09:45:20;30.83;;;27.63;;
15952;SDS011;8075;47.766;8.846;2022-08-19T09:47:47;29.95;;;26.83;;
15952;SDS011;8075;47.766;8.846;2022-08-19T09:50:13;31.80;;;28.55;;
15952;SDS011;8075;47.766;8.846;2022-08-19T09:52:39;33.47;;;29.98;;
15952;SDS011;8075;47.766;8.846;2022-08-19T09:55:07;37.03;;;31.33;;
15952;SDS011;8075;47.766;8.846;2022-08-19T09:57:34;35.88;;;30.73;;
15952;SDS011;8075;47.766;8.846;2022-08-19T10:00:00;32.88;;;29.25;;
15952;SDS011;8075;47.766;8.846;2022-08-19T10:02:26;31.85;;;28.40;;
15952;SDS011;8075;47.766;8.846;2022-08-19T10:04:52;33.28;;;29.65;;
15952;SDS011;8075;47.766;8.846;2022-08-19T10:07:37;33.33;;;29.38;;
15952;SDS011;8075;47.766;8.846;2022-08-19T10:10:04;31.98;;;28.65;;
15952;SDS011;8075;47.766;8.846;2022-08-19T10:12:31;28.98;;;26.08;;
15952;SDS011;8075;47.766;8.846;2022-08-19T10:14:58;31.40;;;28.10;;
15952;SDS011;8075;47.766;8.846;2022-08-19T10:17:24;37.20;;;31.50;;
15952;SDS011;8075;47.766;8.846;2022-08-19T10:19:50;40.47;;;33.40;;
15952;SDS011;8075;47.766;8.846;2022-08-19T10:22:17;39.40;;;33.77;;
15952;SDS011;8075;47.766;8.846;2022-08-19T10:24:43;40.03;;;32.70;;
15952;SDS011;8075;47.766;8.846;2022-08-19T10:27:09;35.45;;;30.98;;
15952;SDS011;8075;47.766;8.846;2022-08-19T10:29:35;36.83;;;31.48;;
15952;SDS011;8075;47.766;8.846;2022-08-19T10:32:02;30.40;;;27.23;;
15952;SDS011;8075;47.766;8.846;2022-08-19T10:34:30;31.77;;;27.98;;
15952;SDS011;8075;47.766;8.846;2022-08-19T10:36:56;29.73;;;26.73;;
15952;SDS011;8075;47.766;8.846;2022-08-19T10:39:22;27.23;;;24.55;;
15952;SDS011;8075;47.766;8.846;2022-08-19T10:41:48;31.13;;;27.83;;
15952;SDS011;8075;47.766;8.846;2022-08-19T10:44:14;32.15;;;28.75;;
15952;SDS011;8075;47.766;8.846;2022-08-19T10:46:42;32.67;;;29.15;;
15952;SDS011;8075;47.766;8.846;2022-08-19T10:49:10;36.40;;;30.02;;
15952;SDS011;8075;47.766;8.846;2022-08-19T10:51:37;35.22;;;30.63;;
15952;SDS011;8075;47.766;8.846;2022-08-19T10:54:22;33.80;;;29.92;;
15952;SDS011;8075;47.766;8.846;2022-08-19T10:57:08;36.35;;;30.10;;
15952;SDS011;8075;47.766;8.846;2022-08-19T10:59:34;34.97;;;30.33;;
15952;SDS011;8075;47.766;8.846;2022-08-19T11:02:01;35.00;;;31.05;;
15952;SDS011;8075;47.766;8.846;2022-08-19T11:04:27;36.45;;;30.98;;
15952;SDS011;8075;47.766;8.846;2022-08-19T11:06:53;36.38;;;31.02;;
15952;SDS011;8075;47.766;8.846;2022-08-19T11:09:20;36.13;;;31.60;;
15952;SDS011;8075;47.766;8.846;2022-08-19T11:11:48;36.88;;;32.10;;
15952;SDS011;8075;47.766;8.846;2022-08-19T11:14:15;34.87;;;31.17;;
15952;SDS011;8075;47.766;8.846;2022-08-19T11:16:43;38.15;;;32.80;;
15952;SDS011;8075;47.766;8.846;2022-08-19T11:19:10;41.60;;;33.47;;
15952;SDS011;8075;47.766;8.846;2022-08-19T11:21:38;38.03;;;33.00;;
15952;SDS011;8075;47.766;8.846;2022-08-19T11:24:05;42.00;;;33.40;;
15952;SDS011;8075;47.766;8.846;2022-08-19T11:26:32;39.75;;;32.40;;
15952;SDS011;8075;47.766;8.846;2022-08-19T11:28:59;35.85;;;30.80;;
15952;SDS011;8075;47.766;8.846;2022-08-19T11:31:26;36.38;;;31.30;;
15952;SDS011;8075;47.766;8.846;2022-08-19T11:33:52;37.43;;;32.13;;
15952;SDS011;8075;47.766;8.846;2022-08-19T11:36:19;37.38;;;32.53;;
15952;SDS011;8075;47.766;8.846;2022-08-19T11:38:46;37.55;;;32.58;;
15952;SDS011;8075;47.766;8.846;2022-08-19T11:41:13;41.45;;;35.08;;
15952;SDS011;8075;47.766;8.846;2022-08-19T11:43:40;41.75;;;34.72;;
15952;SDS011;8075;47.766;8.846;2022-08-19T11:46:07;46.22;;;37.08;;
15952;SDS011;8075;47.766;8.846;2022-08-19T11:48:33;42.83;;;36.20;;
15952;SDS011;8075;47.766;8.846;2022-08-19T11:51:02;50.78;;;39.80;;
15952;SDS011;8075;47.766;8.846;2022-08-19T11:53:30;53.83;;;40.10;;
15952;SDS011;8075;47.766;8.846;2022-08-19T11:55:56;54.85;;;40.40;;
15952;SDS011;8075;47.766;8.846;2022-08-19T11:58:23;52.30;;;40.92;;
15952;SDS011;8075;47.766;8.846;2022-08-19T12:00:50;48.67;;;39.47;;
15952;SDS011;8075;47.766;8.846;2022-08-19T12:03:16;49.88;;;39.50;;
15952;SDS011;8075;47.766;8.846;2022-08-19T12:05:43;51.97;;;39.30;;
15952;SDS011;8075;47.766;8.846;2022-08-19T12:08:09;57.70;;;42.78;;
15952;SDS011;8075;47.766;8.846;2022-08-19T12:10:37;49.60;;;39.40;;
15952;SDS011;8075;47.766;8.846;2022-08-19T12:13:03;52.92;;;41.35;;
15952;SDS011;8075;47.766;8.846;2022-08-19T12:15:29;48.05;;;40.35;;
15952;SDS011;8075;47.766;8.846;2022-08-19T12:17:56;53.90;;;41.53;;
15952;SDS011;8075;47.766;8.846;2022-08-19T12:20:23;51.97;;;41.43;;
15952;SDS011;8075;47.766;8.846;2022-08-19T12:22:50;49.42;;;40.35;;
15952;SDS011;8075;47.766;8.846;2022-08-19T12:25:16;53.58;;;41.22;;
15952;SDS011;8075;47.766;8.846;2022-08-19T12:27:42;52.28;;;40.80;;
15952;SDS011;8075;47.766;8.846;2022-08-19T12:30:10;53.40;;;41.90;;
15952;SDS011;8075;47.766;8.846;2022-08-19T12:32:37;52.50;;;41.33;;
15952;SDS011;8075;47.766;8.846;2022-08-19T12:35:03;54.10;;;41.90;;
15952;SDS011;8075;47.766;8.846;2022-08-19T12:37:29;53.90;;;42.05;;
15952;SDS011;8075;47.766;8.846;2022-08-19T12:39:57;54.53;;;41.72;;
15952;SDS011;8075;47.766;8.846;2022-08-19T12:42:23;55.40;;;41.70;;
15952;SDS011;8075;47.766;8.846;2022-08-19T12:44:49;47.77;;;38.57;;
15952;SDS011;8075;47.766;8.846;2022-08-19T12:47:16;45.60;;;38.42;;
15952;SDS011;8075;47.766;8.846;2022-08-19T12:49:43;43.97;;;37.55;;
15952;SDS011;8075;47.766;8.846;2022-08-19T12:52:10;45.30;;;38.77;;
15952;SDS011;8075;47.766;8.846;2022-08-19T12:54:36;44.42;;;36.97;;
15952;SDS011;8075;47.766;8.846;2022-08-19T12:57:06;50.47;;;40.03;;
15952;SDS011;8075;47.766;8.846;2022-08-19T12:59:33;53.38;;;41.58;;
15952;SDS011;8075;47.766;8.846;2022-08-19T13:01:59;50.03;;;40.45;;
15952;SDS011;8075;47.766;8.846;2022-08-19T13:04:25;45.03;;;38.00;;
15952;SDS011;8075;47.766;8.846;2022-08-19T13:06:51;45.70;;;38.88;;
15952;SDS011;8075;47.766;8.846;2022-08-19T13:09:17;44.63;;;38.17;;
15952;SDS011;8075;47.766;8.846;2022-08-19T13:11:43;44.42;;;38.25;;
15952;SDS011;8075;47.766;8.846;2022-08-19T13:14:09;49.38;;;40.53;;
15952;SDS011;8075;47.766;8.846;2022-08-19T13:16:36;53.47;;;42.30;;
15952;SDS011;8075;47.766;8.846;2022-08-19T13:19:02;55.30;;;43.23;;
15952;SDS011;8075;47.766;8.846;2022-08-19T13:21:30;52.45;;;42.05;;
15952;SDS011;8075;47.766;8.846;2022-08-19T13:23:56;52.78;;;43.38;;
15952;SDS011;8075;47.766;8.846;2022-08-19T13:26:23;56.42;;;43.80;;
15952;SDS011;8075;47.766;8.846;2022-08-19T13:28:49;56.65;;;44.95;;
15952;SDS011;8075;47.766;8.846;2022-08-19T13:31:34;61.70;;;47.55;;
15952;SDS011;8075;47.766;8.846;2022-08-19T13:34:25;61.83;;;47.28;;
15952;SDS011;8075;47.766;8.846;2022-08-19T13:36:52;59.10;;;46.33;;
15952;SDS011;8075;47.766;8.846;2022-08-19T13:39:18;57.63;;;45.22;;
15952;SDS011;8075;47.766;8.846;2022-08-19T13:41:45;56.65;;;45.55;;
15952;SDS011;8075;47.766;8.846;2022-08-19T13:44:13;56.30;;;44.70;;
15952;SDS011;8075;47.766;8.846;2022-08-19T13:46:39;57.53;;;45.55;;
15952;SDS011;8075;47.766;8.846;2022-08-19T13:49:09;54.57;;;45.23;;
15952;SDS011;8075;47.766;8.846;2022-08-19T13:51:35;59.10;;;45.15;;
15952;SDS011;8075;47.766;8.846;2022-08-19T13:54:01;49.42;;;42.90;;
15952;SDS011;8075;47.766;8.846;2022-08-19T13:56:27;51.08;;;42.55;;
15952;SDS011;8075;47.766;8.846;2022-08-19T13:58:53;46.63;;;41.13;;
15952;SDS011;8075;47.766;8.846;2022-08-19T14:01:20;54.27;;;44.30;;
15952;SDS011;8075;47.766;8.846;2022-08-19T14:03:46;53.63;;;43.83;;
15952;SDS011;8075;47.766;8.846;2022-08-19T14:06:12;51.45;;;44.25;;
15952;SDS011;8075;47.766;8.846;2022-08-19T14:08:38;50.17;;;43.25;;
15952;SDS011;8075;47.766;8.846;2022-08-19T14:11:06;53.03;;;45.00;;
15952;SDS011;8075;47.766;8.846;2022-08-19T14:13:32;53.90;;;44.00;;
15952;SDS011;8075;47.766;8.846;2022-08-19T14:15:59;54.05;;;45.08;;
15952;SDS011;8075;47.766;8.846;2022-08-19T14:18:25;58.45;;;46.13;;
15952;SDS011;8075;47.766;8.846;2022-08-19T14:20:51;61.53;;;49.00;;
15952;SDS011;8075;47.766;8.846;2022-08-19T14:23:17;67.55;;;50.17;;
15952;SDS011;8075;47.766;8.846;2022-08-19T14:25:44;60.40;;;48.00;;
15952;SDS011;8075;47.766;8.846;2022-08-19T14:28:11;55.75;;;46.47;;
15952;SDS011;8075;47.766;8.846;2022-08-19T14:30:37;58.80;;;46.78;;
15952;SDS011;8075;47.766;8.846;2022-08-19T14:33:03;55.42;;;46.45;;
15952;SDS011;8075;47.766;8.846;2022-08-19T14:35:30;56.17;;;47.00;;
15952;SDS011;8075;47.766;8.846;2022-08-19T14:37:59;58.53;;;47.50;;
15952;SDS011;8075;47.766;8.846;2022-08-19T14:40:26;63.15;;;48.72;;
15952;SDS011;8075;47.766;8.846;2022-08-19T14:42:53;58.88;;;47.50;;
15952;SDS011;8075;47.766;8.846;2022-08-19T14:45:25;60.08;;;48.90;;
15952;SDS011;8075;47.766;8.846;2022-08-19T14:47:51;59.92;;;48.08;;